Pittsfield, IL

8:40 AM CST on December 27, 2014 (GMT -0600)
Saint Charles County Smartt | Change Station
CLOSE
Current Station
Airport
Location: St. Charles,
Elevation: 436 ft
Nearby Weather Stations

Elev 436 ft 38.93 °N, 90.43 °W | Updated 7 minutes ago

Overcast
Overcast
48 °F
Feels Like 48 °F
N
14
Wind Variable Wind from WNW

Today
High -- | Low -- °F
--% Chance of Precip.
Yesterday
High -- | Low -- °F
Precip. -- in
7:22 AM 4:45 PM
Waxing Crescent, 37% visible
Pressure 30.10 in
Visibility 6.0 miles
Clouds Mostly Cloudy 700 ft
Overcast 1300 ft
Dew Point 46 °F
Humidity 93%
Rainfall 0.00 in
Snow Depth Not available.
UV 0 out of 12
Pollen .30 out of 12
Air Quality Not available.
Flu Activity Not available.
SPECI KSET 271433Z AUTO 29012KT 6SM BR BKN007 OVC013 09/08 A3010 RMK AO2 RAB06E28 CIG 005V010 P0001 T00890078

More Conditions Fewer Conditions

Pressure 30.10 in
Visibility 6.0 miles
Clouds Mostly Cloudy 700 ft
Overcast 1300 ft
Dew Point 46 °F
Humidity 93%
Rainfall 0.00 in
Snow Depth Not available.
UV 0 out of 12
Pollen .30 out of 12
Air Quality Not available.
Flu Activity Not available.
SPECI KSET 271433Z AUTO 29012KT 6SM BR BKN007 OVC013 09/08 A3010 RMK AO2 RAB06E28 CIG 005V010 P0001 T00890078

More Conditions Fewer Conditions

10-Day Weather Forecast

Almanac

Astronomy

Dec. 27, 2014 Rise Set
Actual Time
Civil Twilight
Nautical Twilight
Astronomical Twilight
Moon
Length of Visible Light
Length of Day
Tomorrow will be .
, % of the Moon is Illuminated

Today's Extremes

State Highs State Lows

Community

WunderPhotos

Upload Photos

1,780,918 photos uploaded!

WunderBlogs® & News

Nearby

Air Quality

  Air Quality AQ Index Pollutant
Not available.

Snow Depth

Station Depth Elevation

Earthquake Activity

City Distance Mag. Time & Date
Minimum magnitude displayed is 2.5.

Coastal Water Temperatures

Place Temperature

Nearby Weather Stations